sensor_id;sensor_type;location;lat;lon;timestamp;P1;durP1;ratioP1;P2;durP2;ratioP2
54935;SDS011;40838;50.676;7.838;2023-08-24T00:01:57;6.05;;;3.92;;
54935;SDS011;40838;50.676;7.838;2023-08-24T00:07:27;8.68;;;3.63;;
54935;SDS011;40838;50.676;7.838;2023-08-24T00:09:54;9.52;;;4.03;;
54935;SDS011;40838;50.676;7.838;2023-08-24T00:12:22;11.07;;;4.38;;
54935;SDS011;40838;50.676;7.838;2023-08-24T00:14:51;6.57;;;3.85;;
54935;SDS011;40838;50.676;7.838;2023-08-24T00:17:18;9.68;;;4.20;;
54935;SDS011;40838;50.676;7.838;2023-08-24T00:19:45;8.05;;;3.95;;
54935;SDS011;40838;50.676;7.838;2023-08-24T00:22:11;10.88;;;4.57;;
54935;SDS011;40838;50.676;7.838;2023-08-24T00:24:38;7.95;;;4.25;;
54935;SDS011;40838;50.676;7.838;2023-08-24T00:27:08;7.97;;;4.38;;
54935;SDS011;40838;50.676;7.838;2023-08-24T00:29:37;8.85;;;3.92;;
54935;SDS011;40838;50.676;7.838;2023-08-24T00:32:04;7.00;;;4.85;;
54935;SDS011;40838;50.676;7.838;2023-08-24T00:34:32;8.77;;;4.38;;
54935;SDS011;40838;50.676;7.838;2023-08-24T00:36:58;5.60;;;3.78;;
54935;SDS011;40838;50.676;7.838;2023-08-24T00:39:25;9.15;;;5.05;;
54935;SDS011;40838;50.676;7.838;2023-08-24T00:41:52;11.88;;;4.53;;
54935;SDS011;40838;50.676;7.838;2023-08-24T00:44:19;8.75;;;3.72;;
54935;SDS011;40838;50.676;7.838;2023-08-24T00:46:47;6.85;;;4.60;;
54935;SDS011;40838;50.676;7.838;2023-08-24T00:49:17;7.35;;;4.50;;
54935;SDS011;40838;50.676;7.838;2023-08-24T00:51:45;10.13;;;4.97;;
54935;SDS011;40838;50.676;7.838;2023-08-24T00:54:13;11.27;;;4.85;;
54935;SDS011;40838;50.676;7.838;2023-08-24T00:56:39;8.98;;;4.90;;
54935;SDS011;40838;50.676;7.838;2023-08-24T00:59:06;9.40;;;4.45;;
54935;SDS011;40838;50.676;7.838;2023-08-24T01:01:34;12.40;;;4.38;;
54935;SDS011;40838;50.676;7.838;2023-08-24T01:04:02;7.65;;;4.47;;
54935;SDS011;40838;50.676;7.838;2023-08-24T01:06:29;8.60;;;4.35;;
54935;SDS011;40838;50.676;7.838;2023-08-24T01:08:55;13.15;;;5.55;;
54935;SDS011;40838;50.676;7.838;2023-08-24T01:11:28;15.20;;;4.70;;
54935;SDS011;40838;50.676;7.838;2023-08-24T01:14:17;10.40;;;4.05;;
54935;SDS011;40838;50.676;7.838;2023-08-24T01:16:50;10.40;;;4.43;;
54935;SDS011;40838;50.676;7.838;2023-08-24T01:19:29;5.35;;;4.30;;
54935;SDS011;40838;50.676;7.838;2023-08-24T01:22:03;7.35;;;4.20;;
54935;SDS011;40838;50.676;7.838;2023-08-24T01:24:36;10.80;;;4.18;;
54935;SDS011;40838;50.676;7.838;2023-08-24T01:27:08;6.50;;;4.47;;
54935;SDS011;40838;50.676;7.838;2023-08-24T01:29:36;15.60;;;4.30;;
54935;SDS011;40838;50.676;7.838;2023-08-24T01:32:05;7.68;;;4.30;;
54935;SDS011;40838;50.676;7.838;2023-08-24T01:34:36;8.32;;;4.50;;
54935;SDS011;40838;50.676;7.838;2023-08-24T01:37:03;8.70;;;4.63;;
54935;SDS011;40838;50.676;7.838;2023-08-24T01:39:49;8.70;;;4.97;;
54935;SDS011;40838;50.676;7.838;2023-08-24T01:42:21;11.05;;;4.93;;
54935;SDS011;40838;50.676;7.838;2023-08-24T01:44:57;7.82;;;4.55;;
54935;SDS011;40838;50.676;7.838;2023-08-24T01:47:28;11.07;;;5.35;;
54935;SDS011;40838;50.676;7.838;2023-08-24T01:49:57;10.05;;;4.70;;
54935;SDS011;40838;50.676;7.838;2023-08-24T01:52:24;6.18;;;4.40;;
54935;SDS011;40838;50.676;7.838;2023-08-24T01:54:51;12.32;;;5.05;;
54935;SDS011;40838;50.676;7.838;2023-08-24T01:57:18;10.90;;;5.22;;
54935;SDS011;40838;50.676;7.838;2023-08-24T01:59:48;6.70;;;4.95;;
54935;SDS011;40838;50.676;7.838;2023-08-24T02:02:16;11.25;;;4.32;;
54935;SDS011;40838;50.676;7.838;2023-08-24T02:04:43;7.13;;;4.80;;
54935;SDS011;40838;50.676;7.838;2023-08-24T02:07:09;10.30;;;4.50;;
54935;SDS011;40838;50.676;7.838;2023-08-24T02:09:36;11.57;;;4.65;;
54935;SDS011;40838;50.676;7.838;2023-08-24T02:12:03;8.63;;;4.72;;
54935;SDS011;40838;50.676;7.838;2023-08-24T02:14:32;10.90;;;4.20;;
54935;SDS011;40838;50.676;7.838;2023-08-24T02:17:00;5.20;;;3.85;;
54935;SDS011;40838;50.676;7.838;2023-08-24T02:19:35;10.57;;;4.90;;
54935;SDS011;40838;50.676;7.838;2023-08-24T02:22:02;7.65;;;4.25;;
54935;SDS011;40838;50.676;7.838;2023-08-24T02:24:29;9.20;;;4.88;;
54935;SDS011;40838;50.676;7.838;2023-08-24T02:26:55;8.90;;;3.97;;
54935;SDS011;40838;50.676;7.838;2023-08-24T02:29:22;9.43;;;4.15;;
54935;SDS011;40838;50.676;7.838;2023-08-24T02:31:49;9.00;;;4.18;;
54935;SDS011;40838;50.676;7.838;2023-08-24T02:34:18;10.93;;;4.88;;
54935;SDS011;40838;50.676;7.838;2023-08-24T02:36:45;8.70;;;3.70;;
54935;SDS011;40838;50.676;7.838;2023-08-24T02:39:11;10.48;;;3.88;;
54935;SDS011;40838;50.676;7.838;2023-08-24T02:41:40;9.68;;;3.83;;
54935;SDS011;40838;50.676;7.838;2023-08-24T02:44:08;10.50;;;4.30;;
54935;SDS011;40838;50.676;7.838;2023-08-24T02:46:37;12.05;;;4.05;;
54935;SDS011;40838;50.676;7.838;2023-08-24T02:49:03;8.25;;;3.88;;
54935;SDS011;40838;50.676;7.838;2023-08-24T02:51:31;8.98;;;3.72;;
54935;SDS011;40838;50.676;7.838;2023-08-24T02:53:58;5.55;;;3.25;;
54935;SDS011;40838;50.676;7.838;2023-08-24T02:56:25;8.35;;;3.85;;
54935;SDS011;40838;50.676;7.838;2023-08-24T02:58:53;7.10;;;3.63;;
54935;SDS011;40838;50.676;7.838;2023-08-24T03:01:20;9.20;;;3.45;;
54935;SDS011;40838;50.676;7.838;2023-08-24T03:03:49;10.02;;;3.60;;
54935;SDS011;40838;50.676;7.838;2023-08-24T03:06:16;6.85;;;3.90;;
54935;SDS011;40838;50.676;7.838;2023-08-24T03:08:45;7.35;;;3.92;;
54935;SDS011;40838;50.676;7.838;2023-08-24T03:11:12;9.55;;;3.47;;
54935;SDS011;40838;50.676;7.838;2023-08-24T03:13:39;6.18;;;3.42;;
54935;SDS011;40838;50.676;7.838;2023-08-24T03:16:06;6.15;;;3.65;;
54935;SDS011;40838;50.676;7.838;2023-08-24T03:18:35;12.15;;;3.70;;
54935;SDS011;40838;50.676;7.838;2023-08-24T03:21:03;6.07;;;3.78;;
54935;SDS011;40838;50.676;7.838;2023-08-24T03:23:32;7.50;;;4.18;;
54935;SDS011;40838;50.676;7.838;2023-08-24T03:26:01;14.77;;;4.88;;
54935;SDS011;40838;50.676;7.838;2023-08-24T03:28:28;8.93;;;3.65;;
54935;SDS011;40838;50.676;7.838;2023-08-24T03:30:55;5.70;;;3.88;;
54935;SDS011;40838;50.676;7.838;2023-08-24T03:33:22;8.93;;;4.22;;
54935;SDS011;40838;50.676;7.838;2023-08-24T03:35:49;10.50;;;4.60;;
54935;SDS011;40838;50.676;7.838;2023-08-24T03:38:15;6.20;;;4.38;;
54935;SDS011;40838;50.676;7.838;2023-08-24T03:40:42;7.80;;;4.25;;
54935;SDS011;40838;50.676;7.838;2023-08-24T03:43:10;7.40;;;4.10;;
54935;SDS011;40838;50.676;7.838;2023-08-24T03:45:38;10.32;;;4.65;;
54935;SDS011;40838;50.676;7.838;2023-08-24T03:48:06;10.93;;;4.65;;
54935;SDS011;40838;50.676;7.838;2023-08-24T03:50:33;9.10;;;4.53;;
54935;SDS011;40838;50.676;7.838;2023-08-24T03:53:00;15.20;;;4.55;;
54935;SDS011;40838;50.676;7.838;2023-08-24T03:55:27;9.00;;;4.40;;
54935;SDS011;40838;50.676;7.838;2023-08-24T03:57:54;8.68;;;4.53;;
54935;SDS011;40838;50.676;7.838;2023-08-24T04:00:25;8.80;;;4.63;;
54935;SDS011;40838;50.676;7.838;2023-08-24T04:02:52;8.80;;;4.63;;
54935;SDS011;40838;50.676;7.838;2023-08-24T04:05:23;8.77;;;4.70;;
54935;SDS011;40838;50.676;7.838;2023-08-24T04:07:52;8.07;;;4.32;;
54935;SDS011;40838;50.676;7.838;2023-08-24T04:10:23;18.17;;;5.25;;
54935;SDS011;40838;50.676;7.838;2023-08-24T04:12:50;11.45;;;4.53;;
54935;SDS011;40838;50.676;7.838;2023-08-24T04:15:19;12.23;;;4.82;;
54935;SDS011;40838;50.676;7.838;2023-08-24T04:17:47;6.45;;;4.38;;
54935;SDS011;40838;50.676;7.838;2023-08-24T04:20:14;11.77;;;4.32;;
54935;SDS011;40838;50.676;7.838;2023-08-24T04:22:41;7.80;;;5.05;;
54935;SDS011;40838;50.676;7.838;2023-08-24T04:25:08;13.77;;;4.65;;
54935;SDS011;40838;50.676;7.838;2023-08-24T04:27:35;9.85;;;4.65;;
54935;SDS011;40838;50.676;7.838;2023-08-24T04:30:02;17.70;;;4.57;;
54935;SDS011;40838;50.676;7.838;2023-08-24T04:32:31;8.80;;;4.50;;
54935;SDS011;40838;50.676;7.838;2023-08-24T04:34:59;11.35;;;5.05;;
54935;SDS011;40838;50.676;7.838;2023-08-24T04:37:26;11.27;;;4.50;;
54935;SDS011;40838;50.676;7.838;2023-08-24T04:39:53;8.38;;;4.60;;
54935;SDS011;40838;50.676;7.838;2023-08-24T04:42:20;7.38;;;4.30;;
54935;SDS011;40838;50.676;7.838;2023-08-24T04:44:47;7.88;;;4.50;;
54935;SDS011;40838;50.676;7.838;2023-08-24T04:47:13;17.65;;;5.25;;
54935;SDS011;40838;50.676;7.838;2023-08-24T04:49:42;10.85;;;4.53;;
54935;SDS011;40838;50.676;7.838;2023-08-24T04:52:11;10.20;;;4.80;;
54935;SDS011;40838;50.676;7.838;2023-08-24T04:54:37;12.45;;;5.07;;
54935;SDS011;40838;50.676;7.838;2023-08-24T04:57:04;7.43;;;4.20;;
54935;SDS011;40838;50.676;7.838;2023-08-24T04:59:31;6.35;;;4.63;;
54935;SDS011;40838;50.676;7.838;2023-08-24T05:01:58;6.68;;;4.10;;
54935;SDS011;40838;50.676;7.838;2023-08-24T05:04:25;6.72;;;4.18;;
54935;SDS011;40838;50.676;7.838;2023-08-24T05:06:51;8.75;;;5.35;;
54935;SDS011;40838;50.676;7.838;2023-08-24T05:09:19;7.10;;;4.65;;
54935;SDS011;40838;50.676;7.838;2023-08-24T05:11:48;8.98;;;4.97;;
54935;SDS011;40838;50.676;7.838;2023-08-24T05:14:14;15.15;;;5.22;;
54935;SDS011;40838;50.676;7.838;2023-08-24T05:16:41;12.82;;;4.63;;
54935;SDS011;40838;50.676;7.838;2023-08-24T05:19:08;10.45;;;4.75;;
54935;SDS011;40838;50.676;7.838;2023-08-24T05:21:35;13.35;;;4.25;;
54935;SDS011;40838;50.676;7.838;2023-08-24T05:24:01;7.57;;;4.10;;
54935;SDS011;40838;50.676;7.838;2023-08-24T05:26:30;8.13;;;4.15;;
54935;SDS011;40838;50.676;7.838;2023-08-24T05:28:57;7.28;;;4.05;;
54935;SDS011;40838;50.676;7.838;2023-08-24T05:31:24;9.05;;;4.63;;
54935;SDS011;40838;50.676;7.838;2023-08-24T05:33:51;9.27;;;4.75;;
54935;SDS011;40838;50.676;7.838;2023-08-24T05:36:17;7.57;;;4.13;;
54935;SDS011;40838;50.676;7.838;2023-08-24T05:38:44;11.57;;;4.55;;
54935;SDS011;40838;50.676;7.838;2023-08-24T05:41:12;11.45;;;4.10;;
54935;SDS011;40838;50.676;7.838;2023-08-24T05:43:40;10.25;;;4.55;;
54935;SDS011;40838;50.676;7.838;2023-08-24T05:46:07;8.57;;;4.35;;
54935;SDS011;40838;50.676;7.838;2023-08-24T05:48:33;10.68;;;4.85;;
54935;SDS011;40838;50.676;7.838;2023-08-24T05:51:00;10.35;;;4.55;;
54935;SDS011;40838;50.676;7.838;2023-08-24T05:53:27;11.10;;;4.93;;
54935;SDS011;40838;50.676;7.838;2023-08-24T05:55:56;10.18;;;5.65;;
54935;SDS011;40838;50.676;7.838;2023-08-24T05:58:24;8.63;;;5.07;;
54935;SDS011;40838;50.676;7.838;2023-08-24T06:00:56;11.65;;;5.70;;
54935;SDS011;40838;50.676;7.838;2023-08-24T06:03:24;7.82;;;5.38;;
54935;SDS011;40838;50.676;7.838;2023-08-24T06:05:51;9.18;;;6.30;;
54935;SDS011;40838;50.676;7.838;2023-08-24T06:08:17;10.43;;;6.05;;
54935;SDS011;40838;50.676;7.838;2023-08-24T06:10:44;9.73;;;6.00;;
54935;SDS011;40838;50.676;7.838;2023-08-24T06:13:11;13.90;;;5.63;;
54935;SDS011;40838;50.676;7.838;2023-08-24T06:15:37;12.75;;;6.07;;
54935;SDS011;40838;50.676;7.838;2023-08-24T06:18:06;13.32;;;6.18;;
54935;SDS011;40838;50.676;7.838;2023-08-24T06:20:32;10.50;;;6.10;;
54935;SDS011;40838;50.676;7.838;2023-08-24T06:22:59;11.00;;;5.93;;
54935;SDS011;40838;50.676;7.838;2023-08-24T06:25:27;8.90;;;6.63;;
54935;SDS011;40838;50.676;7.838;2023-08-24T06:27:54;19.60;;;6.75;;
54935;SDS011;40838;50.676;7.838;2023-08-24T06:30:20;8.85;;;5.97;;
54935;SDS011;40838;50.676;7.838;2023-08-24T06:32:48;10.57;;;5.40;;
54935;SDS011;40838;50.676;7.838;2023-08-24T06:35:16;11.25;;;6.70;;
54935;SDS011;40838;50.676;7.838;2023-08-24T06:37:44;9.75;;;5.80;;
54935;SDS011;40838;50.676;7.838;2023-08-24T06:40:11;16.92;;;6.40;;
54935;SDS011;40838;50.676;7.838;2023-08-24T06:42:38;10.75;;;6.07;;
54935;SDS011;40838;50.676;7.838;2023-08-24T06:45:05;9.35;;;6.13;;
54935;SDS011;40838;50.676;7.838;2023-08-24T06:47:35;9.40;;;5.10;;
54935;SDS011;40838;50.676;7.838;2023-08-24T06:50:02;9.30;;;5.03;;
54935;SDS011;40838;50.676;7.838;2023-08-24T06:52:30;12.35;;;4.82;;
54935;SDS011;40838;50.676;7.838;2023-08-24T06:54:57;6.32;;;3.97;;
54935;SDS011;40838;50.676;7.838;2023-08-24T06:57:24;5.32;;;4.05;;
54935;SDS011;40838;50.676;7.838;2023-08-24T06:59:51;8.48;;;4.40;;
54935;SDS011;40838;50.676;7.838;2023-08-24T07:02:18;7.63;;;3.63;;
54935;SDS011;40838;50.676;7.838;2023-08-24T07:04:44;5.38;;;4.07;;
54935;SDS011;40838;50.676;7.838;2023-08-24T07:07:11;10.52;;;3.58;;
54935;SDS011;40838;50.676;7.838;2023-08-24T07:09:39;8.55;;;3.47;;
54935;SDS011;40838;50.676;7.838;2023-08-24T07:12:06;6.22;;;2.95;;
54935;SDS011;40838;50.676;7.838;2023-08-24T07:14:35;13.98;;;4.70;;
54935;SDS011;40838;50.676;7.838;2023-08-24T07:17:02;5.65;;;3.22;;
54935;SDS011;40838;50.676;7.838;2023-08-24T07:19:29;4.53;;;3.33;;
54935;SDS011;40838;50.676;7.838;2023-08-24T07:21:56;6.35;;;2.80;;
54935;SDS011;40838;50.676;7.838;2023-08-24T07:24:22;5.40;;;3.05;;
54935;SDS011;40838;50.676;7.838;2023-08-24T07:26:55;6.15;;;2.50;;
54935;SDS011;40838;50.676;7.838;2023-08-24T07:29:21;6.32;;;2.80;;
54935;SDS011;40838;50.676;7.838;2023-08-24T07:31:51;4.55;;;2.65;;
54935;SDS011;40838;50.676;7.838;2023-08-24T07:34:18;6.63;;;2.85;;
54935;SDS011;40838;50.676;7.838;2023-08-24T07:36:49;4.80;;;2.90;;
54935;SDS011;40838;50.676;7.838;2023-08-24T07:39:16;5.63;;;2.80;;
54935;SDS011;40838;50.676;7.838;2023-08-24T07:41:42;5.90;;;3.05;;
54935;SDS011;40838;50.676;7.838;2023-08-24T07:44:12;6.68;;;3.10;;
54935;SDS011;40838;50.676;7.838;2023-08-24T07:46:39;3.15;;;2.35;;
54935;SDS011;40838;50.676;7.838;2023-08-24T07:49:06;6.65;;;3.00;;
54935;SDS011;40838;50.676;7.838;2023-08-24T07:51:32;6.10;;;2.55;;
54935;SDS011;40838;50.676;7.838;2023-08-24T07:53:59;4.97;;;2.55;;
54935;SDS011;40838;50.676;7.838;2023-08-24T07:56:26;6.07;;;2.42;;
54935;SDS011;40838;50.676;7.838;2023-08-24T07:58:53;6.30;;;2.10;;
54935;SDS011;40838;50.676;7.838;2023-08-24T08:01:21;5.93;;;2.40;;
54935;SDS011;40838;50.676;7.838;2023-08-24T08:03:48;3.53;;;2.05;;
54935;SDS011;40838;50.676;7.838;2023-08-24T08:06:14;5.47;;;2.33;;
54935;SDS011;40838;50.676;7.838;2023-08-24T08:08:41;5.70;;;2.28;;
54935;SDS011;40838;50.676;7.838;2023-08-24T08:11:09;2.38;;;2.15;;
54935;SDS011;40838;50.676;7.838;2023-08-24T08:13:36;4.38;;;2.08;;
54935;SDS011;40838;50.676;7.838;2023-08-24T08:16:03;4.90;;;2.42;;
54935;SDS011;40838;50.676;7.838;2023-08-24T08:18:32;2.78;;;2.03;;
54935;SDS011;40838;50.676;7.838;2023-08-24T08:21:00;3.88;;;2.30;;
54935;SDS011;40838;50.676;7.838;2023-08-24T08:23:27;9.32;;;2.53;;
54935;SDS011;40838;50.676;7.838;2023-08-24T08:25:53;8.18;;;2.20;;
54935;SDS011;40838;50.676;7.838;2023-08-24T08:28:20;5.38;;;2.03;;
54935;SDS011;40838;50.676;7.838;2023-08-24T08:30:47;2.45;;;1.92;;
54935;SDS011;40838;50.676;7.838;2023-08-24T08:33:15;7.57;;;2.00;;
54935;SDS011;40838;50.676;7.838;2023-08-24T08:35:43;6.35;;;2.55;;
54935;SDS011;40838;50.676;7.838;2023-08-24T08:38:10;3.20;;;1.75;;
54935;SDS011;40838;50.676;7.838;2023-08-24T08:40:37;6.72;;;2.10;;
54935;SDS011;40838;50.676;7.838;2023-08-24T08:43:04;7.65;;;2.47;;
54935;SDS011;40838;50.676;7.838;2023-08-24T08:45:31;7.53;;;2.50;;
54935;SDS011;40838;50.676;7.838;2023-08-24T08:47:59;7.75;;;2.22;;
54935;SDS011;40838;50.676;7.838;2023-08-24T08:50:27;5.18;;;1.80;;
54935;SDS011;40838;50.676;7.838;2023-08-24T08:52:55;3.42;;;2.10;;
54935;SDS011;40838;50.676;7.838;2023-08-24T08:55:23;3.88;;;2.08;;
54935;SDS011;40838;50.676;7.838;2023-08-24T08:57:51;7.43;;;1.95;;
54935;SDS011;40838;50.676;7.838;2023-08-24T09:00:23;3.92;;;1.98;;
54935;SDS011;40838;50.676;7.838;2023-08-24T09:02:50;4.32;;;1.92;;
54935;SDS011;40838;50.676;7.838;2023-08-24T09:05:20;4.25;;;2.17;;
54935;SDS011;40838;50.676;7.838;2023-08-24T09:07:47;1.73;;;1.55;;
54935;SDS011;40838;50.676;7.838;2023-08-24T09:10:16;3.88;;;2.20;;
54935;SDS011;40838;50.676;7.838;2023-08-24T09:12:43;6.45;;;2.03;;
54935;SDS011;40838;50.676;7.838;2023-08-24T09:15:10;5.03;;;1.83;;
54935;SDS011;40838;50.676;7.838;2023-08-24T09:17:41;2.92;;;1.83;;
54935;SDS011;40838;50.676;7.838;2023-08-24T09:20:09;4.65;;;2.00;;
54935;SDS011;40838;50.676;7.838;2023-08-24T09:22:37;4.45;;;2.08;;
54935;SDS011;40838;50.676;7.838;2023-08-24T09:25:06;3.42;;;2.10;;
54935;SDS011;40838;50.676;7.838;2023-08-24T09:27:36;4.25;;;2.20;;
54935;SDS011;40838;50.676;7.838;2023-08-24T09:30:04;3.13;;;1.90;;
54935;SDS011;40838;50.676;7.838;2023-08-24T09:32:32;4.40;;;2.13;;
54935;SDS011;40838;50.676;7.838;2023-08-24T09:35:02;4.00;;;1.92;;
54935;SDS011;40838;50.676;7.838;2023-08-24T09:37:31;5.60;;;2.20;;
54935;SDS011;40838;50.676;7.838;2023-08-24T09:40:03;3.03;;;2.08;;
54935;SDS011;40838;50.676;7.838;2023-08-24T09:42:38;97.15;;;10.35;;
54935;SDS011;40838;50.676;7.838;2023-08-24T09:45:07;11.30;;;2.05;;
54935;SDS011;40838;50.676;7.838;2023-08-24T09:47:37;5.03;;;2.13;;
54935;SDS011;40838;50.676;7.838;2023-08-24T09:50:04;6.80;;;2.30;;
54935;SDS011;40838;50.676;7.838;2023-08-24T09:52:34;3.20;;;1.73;;
54935;SDS011;40838;50.676;7.838;2023-08-24T09:55:05;5.05;;;2.40;;
54935;SDS011;40838;50.676;7.838;2023-08-24T09:57:36;5.28;;;2.08;;
54935;SDS011;40838;50.676;7.838;2023-08-24T10:00:05;9.13;;;2.08;;
54935;SDS011;40838;50.676;7.838;2023-08-24T10:02:36;4.18;;;2.20;;
54935;SDS011;40838;50.676;7.838;2023-08-24T10:05:08;5.32;;;2.15;;
54935;SDS011;40838;50.676;7.838;2023-08-24T10:07:36;3.67;;;2.00;;
54935;SDS011;40838;50.676;7.838;2023-08-24T10:10:06;5.15;;;2.35;;
54935;SDS011;40838;50.676;7.838;2023-08-24T10:12:38;4.03;;;2.38;;
54935;SDS011;40838;50.676;7.838;2023-08-24T10:15:11;5.95;;;1.98;;
54935;SDS011;40838;50.676;7.838;2023-08-24T10:17:38;3.95;;;1.70;;
54935;SDS011;40838;50.676;7.838;2023-08-24T10:20:06;2.22;;;1.70;;
54935;SDS011;40838;50.676;7.838;2023-08-24T10:22:35;2.45;;;1.83;;
54935;SDS011;40838;50.676;7.838;2023-08-24T10:25:02;3.40;;;2.10;;
54935;SDS011;40838;50.676;7.838;2023-08-24T10:27:30;6.07;;;2.15;;
54935;SDS011;40838;50.676;7.838;2023-08-24T10:29:58;4.20;;;2.28;;
54935;SDS011;40838;50.676;7.838;2023-08-24T10:32:25;7.22;;;2.00;;
54935;SDS011;40838;50.676;7.838;2023-08-24T10:34:52;3.78;;;2.03;;
54935;SDS011;40838;50.676;7.838;2023-08-24T10:37:24;3.88;;;2.03;;
54935;SDS011;40838;50.676;7.838;2023-08-24T10:39:52;3.22;;;2.30;;
54935;SDS011;40838;50.676;7.838;2023-08-24T10:42:19;3.45;;;2.40;;
54935;SDS011;40838;50.676;7.838;2023-08-24T10:44:47;5.40;;;2.30;;
54935;SDS011;40838;50.676;7.838;2023-08-24T10:47:18;4.45;;;2.20;;
54935;SDS011;40838;50.676;7.838;2023-08-24T10:49:57;3.67;;;2.05;;
54935;SDS011;40838;50.676;7.838;2023-08-24T10:52:24;6.57;;;2.47;;
54935;SDS011;40838;50.676;7.838;2023-08-24T10:54:56;5.72;;;2.42;;
54935;SDS011;40838;50.676;7.838;2023-08-24T10:57:24;4.10;;;2.20;;
54935;SDS011;40838;50.676;7.838;2023-08-24T11:00:05;3.95;;;2.40;;
54935;SDS011;40838;50.676;7.838;2023-08-24T11:05:20;4.65;;;2.97;;
54935;SDS011;40838;50.676;7.838;2023-08-24T11:07:51;4.90;;;2.30;;
54935;SDS011;40838;50.676;7.838;2023-08-24T11:10:20;6.60;;;2.10;;
54935;SDS011;40838;50.676;7.838;2023-08-24T11:15:33;109.45;;;16.42;;
54935;SDS011;40838;50.676;7.838;2023-08-24T11:18:20;2.97;;;1.92;;
54935;SDS011;40838;50.676;7.838;2023-08-24T11:20:49;5.03;;;2.10;;
54935;SDS011;40838;50.676;7.838;2023-08-24T11:23:17;3.10;;;1.83;;
54935;SDS011;40838;50.676;7.838;2023-08-24T11:25:44;4.88;;;2.30;;
54935;SDS011;40838;50.676;7.838;2023-08-24T11:28:16;3.38;;;1.85;;
54935;SDS011;40838;50.676;7.838;2023-08-24T11:30:44;3.17;;;1.80;;
54935;SDS011;40838;50.676;7.838;2023-08-24T11:33:11;4.00;;;1.90;;
54935;SDS011;40838;50.676;7.838;2023-08-24T11:35:40;5.13;;;2.03;;
54935;SDS011;40838;50.676;7.838;2023-08-24T11:38:08;6.20;;;2.10;;
54935;SDS011;40838;50.676;7.838;2023-08-24T11:40:35;2.65;;;1.83;;
54935;SDS011;40838;50.676;7.838;2023-08-24T11:43:02;3.13;;;2.03;;
54935;SDS011;40838;50.676;7.838;2023-08-24T11:45:30;4.63;;;2.20;;
54935;SDS011;40838;50.676;7.838;2023-08-24T11:47:58;3.10;;;2.15;;
54935;SDS011;40838;50.676;7.838;2023-08-24T11:50:25;6.22;;;2.30;;
54935;SDS011;40838;50.676;7.838;2023-08-24T11:52:54;3.42;;;2.03;;
54935;SDS011;40838;50.676;7.838;2023-08-24T11:55:21;4.90;;;2.05;;
54935;SDS011;40838;50.676;7.838;2023-08-24T11:57:48;5.78;;;2.15;;
54935;SDS011;40838;50.676;7.838;2023-08-24T12:00:14;4.40;;;2.10;;
54935;SDS011;40838;50.676;7.838;2023-08-24T12:02:42;4.53;;;2.40;;
54935;SDS011;40838;50.676;7.838;2023-08-24T12:05:19;5.40;;;2.15;;
54935;SDS011;40838;50.676;7.838;2023-08-24T12:07:47;4.78;;;2.00;;
54935;SDS011;40838;50.676;7.838;2023-08-24T12:10:15;2.30;;;1.90;;
54935;SDS011;40838;50.676;7.838;2023-08-24T12:12:42;18.95;;;3.17;;
54935;SDS011;40838;50.676;7.838;2023-08-24T12:15:14;3.38;;;2.08;;
54935;SDS011;40838;50.676;7.838;2023-08-24T12:17:43;6.22;;;2.03;;
54935;SDS011;40838;50.676;7.838;2023-08-24T12:20:16;7.18;;;2.05;;
54935;SDS011;40838;50.676;7.838;2023-08-24T12:22:49;5.40;;;2.00;;
54935;SDS011;40838;50.676;7.838;2023-08-24T12:25:18;4.53;;;1.92;;
54935;SDS011;40838;50.676;7.838;2023-08-24T12:27:48;5.55;;;2.08;;
54935;SDS011;40838;50.676;7.838;2023-08-24T12:30:16;4.78;;;1.70;;
54935;SDS011;40838;50.676;7.838;2023-08-24T12:32:43;5.60;;;2.20;;
54935;SDS011;40838;50.676;7.838;2023-08-24T12:35:11;4.15;;;1.90;;
54935;SDS011;40838;50.676;7.838;2023-08-24T12:37:38;4.72;;;2.05;;
54935;SDS011;40838;50.676;7.838;2023-08-24T12:40:05;3.08;;;1.83;;
54935;SDS011;40838;50.676;7.838;2023-08-24T12:42:34;6.72;;;2.13;;
54935;SDS011;40838;50.676;7.838;2023-08-24T12:45:01;10.45;;;2.63;;
54935;SDS011;40838;50.676;7.838;2023-08-24T12:47:29;5.70;;;2.33;;
54935;SDS011;40838;50.676;7.838;2023-08-24T12:49:56;5.85;;;2.05;;
54935;SDS011;40838;50.676;7.838;2023-08-24T12:52:23;5.75;;;2.30;;
54935;SDS011;40838;50.676;7.838;2023-08-24T12:54:49;2.50;;;1.83;;
54935;SDS011;40838;50.676;7.838;2023-08-24T12:57:16;3.53;;;2.30;;
54935;SDS011;40838;50.676;7.838;2023-08-24T12:59:45;3.60;;;2.20;;
54935;SDS011;40838;50.676;7.838;2023-08-24T13:02:12;7.15;;;2.10;;
54935;SDS011;40838;50.676;7.838;2023-08-24T13:04:39;3.58;;;2.10;;
54935;SDS011;40838;50.676;7.838;2023-08-24T13:07:05;6.05;;;2.08;;
54935;SDS011;40838;50.676;7.838;2023-08-24T13:09:32;6.20;;;2.10;;
54935;SDS011;40838;50.676;7.838;2023-08-24T13:11:59;7.78;;;2.25;;
54935;SDS011;40838;50.676;7.838;2023-08-24T13:14:25;3.30;;;2.17;;
54935;SDS011;40838;50.676;7.838;2023-08-24T13:16:54;7.25;;;2.22;;
54935;SDS011;40838;50.676;7.838;2023-08-24T13:19:21;3.42;;;2.33;;
54935;SDS011;40838;50.676;7.838;2023-08-24T13:21:47;6.03;;;2.40;;
54935;SDS011;40838;50.676;7.838;2023-08-24T13:24:14;6.97;;;2.38;;
54935;SDS011;40838;50.676;7.838;2023-08-24T13:26:40;9.70;;;2.50;;
54935;SDS011;40838;50.676;7.838;2023-08-24T13:29:07;5.18;;;2.15;;
54935;SDS011;40838;50.676;7.838;2023-08-24T13:31:34;9.82;;;2.53;;
54935;SDS011;40838;50.676;7.838;2023-08-24T13:34:02;4.43;;;2.30;;
54935;SDS011;40838;50.676;7.838;2023-08-24T13:36:29;6.30;;;2.25;;
54935;SDS011;40838;50.676;7.838;2023-08-24T13:38:56;5.93;;;2.30;;
54935;SDS011;40838;50.676;7.838;2023-08-24T13:41:23;9.70;;;2.88;;
54935;SDS011;40838;50.676;7.838;2023-08-24T13:43:49;5.88;;;2.90;;
54935;SDS011;40838;50.676;7.838;2023-08-24T13:46:16;14.18;;;2.95;;
54935;SDS011;40838;50.676;7.838;2023-08-24T13:48:43;5.22;;;2.90;;
54935;SDS011;40838;50.676;7.838;2023-08-24T13:51:11;6.90;;;2.67;;
54935;SDS011;40838;50.676;7.838;2023-08-24T13:53:38;5.40;;;2.38;;
54935;SDS011;40838;50.676;7.838;2023-08-24T13:56:05;4.20;;;2.30;;
54935;SDS011;40838;50.676;7.838;2023-08-24T13:58:32;6.75;;;2.38;;
54935;SDS011;40838;50.676;7.838;2023-08-24T14:00:58;4.53;;;2.42;;
54935;SDS011;40838;50.676;7.838;2023-08-24T14:03:28;3.05;;;2.47;;
54935;SDS011;40838;50.676;7.838;2023-08-24T14:05:55;6.28;;;2.78;;
54935;SDS011;40838;50.676;7.838;2023-08-24T14:08:23;5.05;;;2.67;;
54935;SDS011;40838;50.676;7.838;2023-08-24T14:10:51;12.05;;;4.82;;
54935;SDS011;40838;50.676;7.838;2023-08-24T14:13:18;8.73;;;3.10;;
54935;SDS011;40838;50.676;7.838;2023-08-24T14:15:47;6.80;;;2.60;;
54935;SDS011;40838;50.676;7.838;2023-08-24T14:18:14;5.35;;;2.67;;
54935;SDS011;40838;50.676;7.838;2023-08-24T14:20:42;6.75;;;2.50;;
54935;SDS011;40838;50.676;7.838;2023-08-24T14:23:08;9.27;;;2.35;;
54935;SDS011;40838;50.676;7.838;2023-08-24T14:25:37;5.75;;;2.50;;
54935;SDS011;40838;50.676;7.838;2023-08-24T14:28:03;7.28;;;2.50;;
54935;SDS011;40838;50.676;7.838;2023-08-24T14:30:30;3.03;;;2.40;;
54935;SDS011;40838;50.676;7.838;2023-08-24T14:32:57;4.88;;;2.85;;
54935;SDS011;40838;50.676;7.838;2023-08-24T14:35:23;5.95;;;2.55;;
54935;SDS011;40838;50.676;7.838;2023-08-24T14:37:50;7.32;;;2.40;;
54935;SDS011;40838;50.676;7.838;2023-08-24T14:40:17;7.25;;;2.55;;
54935;SDS011;40838;50.676;7.838;2023-08-24T14:42:47;7.03;;;2.75;;
54935;SDS011;40838;50.676;7.838;2023-08-24T14:45:15;4.97;;;2.65;;
54935;SDS011;40838;50.676;7.838;2023-08-24T14:47:42;2.95;;;2.47;;
54935;SDS011;40838;50.676;7.838;2023-08-24T14:50:10;7.80;;;2.95;;
54935;SDS011;40838;50.676;7.838;2023-08-24T14:52:36;8.18;;;3.03;;
54935;SDS011;40838;50.676;7.838;2023-08-24T14:55:04;6.00;;;2.58;;
54935;SDS011;40838;50.676;7.838;2023-08-24T14:57:33;7.32;;;3.47;;
54935;SDS011;40838;50.676;7.838;2023-08-24T15:00:01;7.38;;;2.92;;